Time;durP1;ratioP1;P1;durP2;ratioP2;P2;SDS_P1;SDS_P2;PMS_P1;PMS_P2;Temp;Humidity;BMP_temperature;BMP_pressure;BME280_temperature;BME280_humidity;BME280_pressure;Samples;Min_cycle;Max_cycle;Signal;HPM_P1;HPM_P2
2022/07/01 00:01:36;;;;;;;8.93;7.00;;;25.10;63.20;;;;;;4935858;29;20079;-74
2022/07/01 00:04:02;;;;;;;10.02;7.30;;;25.10;63.30;;;;;;4935818;29;20040;-74
2022/07/01 00:06:28;;;;;;;8.43;7.00;;;25.10;63.20;;;;;;4935426;29;20128;-74
2022/07/01 00:08:54;;;;;;;9.40;6.93;;;25.10;63.20;;;;;;4935823;29;20036;-74
2022/07/01 00:11:21;;;;;;;9.70;7.38;;;25.10;63.20;;;;;;4935572;29;20028;-74
2022/07/01 00:13:46;;;;;;;8.52;6.93;;;25.10;63.20;;;;;;4935689;29;20035;-74
2022/07/01 00:16:12;;;;;;;9.48;6.80;;;25.10;63.10;;;;;;4902806;29;20039;-74
2022/07/01 00:18:38;;;;;;;8.02;6.90;;;25.10;63.20;;;;;;4935586;29;20505;-74
2022/07/01 00:21:04;;;;;;;8.63;6.90;;;25.10;63.10;;;;;;4935336;29;20412;-73
2022/07/01 00:23:31;;;;;;;8.60;6.70;;;25.10;63.10;;;;;;4935440;29;20027;-74
2022/07/01 00:25:57;;;;;;;8.18;6.38;;;25.10;63.20;;;;;;4935173;29;20031;-74
2022/07/01 00:28:23;;;;;;;8.25;6.78;;;25.10;63.10;;;;;;4934294;29;20053;-74
2022/07/01 00:30:49;;;;;;;9.18;6.93;;;25.10;63.10;;;;;;4935438;29;20456;-74
2022/07/01 00:33:14;;;;;;;7.85;6.57;;;25.10;63.10;;;;;;4935359;29;20055;-74
2022/07/01 00:35:40;;;;;;;9.48;6.72;;;25.10;63.30;;;;;;4934857;29;20058;-74
2022/07/01 00:38:06;;;;;;;8.25;6.40;;;25.10;63.10;;;;;;4935148;29;20484;-74
2022/07/01 00:40:32;;;;;;;8.13;6.28;;;25.10;63.10;;;;;;4935228;29;20028;-74
2022/07/01 00:42:58;;;;;;;8.88;6.95;;;25.10;63.10;;;;;;4935128;29;20538;-74
2022/07/01 00:45:24;;;;;;;8.57;6.70;;;25.10;63.10;;;;;;4935067;29;20043;-74
2022/07/01 00:47:49;;;;;;;7.80;6.18;;;25.10;63.10;;;;;;4934892;29;20438;-74
2022/07/01 00:50:16;;;;;;;8.93;6.38;;;25.10;63.10;;;;;;4935130;29;20039;-74
2022/07/01 00:52:43;;;;;;;8.27;6.50;;;25.10;63.20;;;;;;4935010;29;20036;-74
2022/07/01 00:55:12;;;;;;;9.20;7.22;;;25.00;63.00;;;;;;4933718;29;20520;-74
2022/07/01 00:57:41;;;;;;;8.82;6.68;;;25.10;63.10;;;;;;4934737;29;20366;-74
2022/07/01 01:00:13;;;;;;;7.85;6.10;;;25.10;63.20;;;;;;4918053;29;20031;-74
2022/07/01 01:02:39;;;;;;;7.90;6.50;;;25.10;63.10;;;;;;4934829;29;20401;-74
2022/07/01 01:05:07;;;;;;;7.82;6.32;;;25.00;63.10;;;;;;4917918;29;20437;-73
2022/07/01 01:07:33;;;;;;;8.77;6.35;;;25.00;63.00;;;;;;4934453;29;20086;-73
2022/07/01 01:09:59;;;;;;;8.55;6.65;;;25.00;63.10;;;;;;4934812;29;20027;-73
2022/07/01 01:12:26;;;;;;;8.23;6.43;;;25.00;63.10;;;;;;4934683;29;20107;-73
2022/07/01 01:14:52;;;;;;;8.50;6.63;;;25.00;63.10;;;;;;4901860;29;20086;-73
2022/07/01 01:17:19;;;;;;;8.98;6.25;;;25.00;63.00;;;;;;4934259;29;20032;-73
2022/07/01 01:19:45;;;;;;;8.57;6.55;;;25.00;63.00;;;;;;4934633;29;20496;-73
2022/07/01 01:22:15;;;;;;;8.07;6.57;;;25.00;63.10;;;;;;4934460;29;20412;-73
2022/07/01 01:24:41;;;;;;;7.72;6.43;;;25.00;63.10;;;;;;4934604;29;20114;-73
2022/07/01 01:27:07;;;;;;;8.82;6.72;;;25.00;63.00;;;;;;4934172;29;20035;-73
2022/07/01 01:29:35;;;;;;;7.63;6.15;;;25.10;63.10;;;;;;4934229;29;20036;-73
2022/07/01 01:32:01;;;;;;;7.53;6.00;;;25.10;63.10;;;;;;4933607;29;20039;-74
2022/07/01 01:34:27;;;;;;;7.38;6.05;;;25.10;63.10;;;;;;4934560;29;20079;-73
2022/07/01 01:36:53;;;;;;;6.90;5.93;;;25.10;63.10;;;;;;4934119;29;20027;-74
2022/07/01 01:39:19;;;;;;;8.35;6.32;;;25.10;63.00;;;;;;4934399;29;20027;-73
2022/07/01 01:41:46;;;;;;;8.07;6.35;;;25.10;63.00;;;;;;4934402;29;20059;-73
2022/07/01 01:44:12;;;;;;;8.55;6.43;;;25.10;63.00;;;;;;4934429;29;20031;-73
2022/07/01 01:46:38;;;;;;;9.98;6.88;;;25.10;63.10;;;;;;4934066;29;20480;-73
2022/07/01 01:49:05;;;;;;;7.90;6.40;;;25.10;63.00;;;;;;4934348;29;20444;-74
2022/07/01 01:51:31;;;;;;;8.70;6.65;;;25.10;62.90;;;;;;4917160;29;20555;-73
2022/07/01 01:53:58;;;;;;;8.10;6.40;;;25.10;63.00;;;;;;4934384;29;20122;-73
2022/07/01 01:56:24;;;;;;;7.13;5.97;;;25.10;63.00;;;;;;4933962;29;20063;-73
2022/07/01 01:58:50;;;;;;;7.38;6.28;;;25.10;62.90;;;;;;4934263;29;20055;-73
2022/07/01 02:01:17;;;;;;;9.07;6.85;;;25.10;63.00;;;;;;4917078;29;20031;-73
2022/07/01 02:03:44;;;;;;;7.60;6.15;;;25.10;63.00;;;;;;4934194;29;20027;-73
2022/07/01 02:06:12;;;;;;;6.85;5.88;;;25.00;62.90;;;;;;4933868;29;20400;-73
2022/07/01 02:08:38;;;;;;;7.65;6.18;;;25.00;63.00;;;;;;4934156;29;20082;-73
2022/07/01 02:11:04;;;;;;;7.30;5.97;;;25.00;63.00;;;;;;4934039;29;20035;-73
2022/07/01 02:13:30;;;;;;;7.00;6.00;;;25.10;63.00;;;;;;4934303;29;20020;-73
2022/07/01 02:15:56;;;;;;;9.77;6.53;;;25.00;63.00;;;;;;4916711;29;20373;-73
2022/07/01 02:18:23;;;;;;;8.25;6.25;;;25.00;63.00;;;;;;4934147;29;20472;-73
2022/07/01 02:20:49;;;;;;;9.18;6.82;;;25.00;63.00;;;;;;4934051;29;20103;-73
2022/07/01 02:23:15;;;;;;;8.45;5.95;;;25.00;63.00;;;;;;4934225;29;20525;-73
2022/07/01 02:25:42;;;;;;;8.32;6.82;;;25.00;63.00;;;;;;4916744;29;20038;-73
2022/07/01 02:28:08;;;;;;;7.88;6.00;;;25.00;62.90;;;;;;4933924;29;20400;-73
2022/07/01 02:30:36;;;;;;;7.10;6.05;;;25.00;62.90;;;;;;4934000;29;20031;-73
2022/07/01 02:33:03;;;;;;;8.35;6.43;;;25.00;63.00;;;;;;4933993;29;20087;-73
2022/07/01 02:35:29;;;;;;;9.23;6.18;;;25.00;62.90;;;;;;4934141;29;20109;-73
2022/07/01 02:37:55;;;;;;;7.13;5.95;;;25.00;63.00;;;;;;4933756;29;20156;-74
2022/07/01 02:40:22;;;;;;;8.27;6.70;;;25.00;62.90;;;;;;4935223;29;20506;-73
2022/07/01 02:42:47;;;;;;;8.13;6.38;;;25.00;63.00;;;;;;4937182;29;20473;-73
2022/07/01 02:45:13;;;;;;;8.02;6.40;;;25.00;63.00;;;;;;4937246;29;20039;-73
2022/07/01 02:47:40;;;;;;;8.88;6.72;;;25.00;62.90;;;;;;4937243;29;20032;-73
2022/07/01 02:50:11;;;;;;;8.13;6.30;;;25.00;62.90;;;;;;4937291;29;20028;-73
2022/07/01 02:52:41;;;;;;;8.05;6.30;;;25.00;63.00;;;;;;4937108;29;20058;-73
2022/07/01 02:55:12;;;;;;;7.38;5.95;;;25.00;63.00;;;;;;4936335;29;20056;-73
2022/07/01 02:57:41;;;;;;;7.65;6.22;;;25.00;62.90;;;;;;4936912;29;20024;-73
2022/07/01 03:00:10;;;;;;;8.40;6.45;;;25.10;62.90;;;;;;4920263;29;20066;-73
2022/07/01 03:02:36;;;;;;;8.87;6.27;;;25.10;62.90;;;;;;4936930;29;20032;-73
2022/07/01 03:05:03;;;;;;;8.60;6.72;;;25.10;62.90;;;;;;4920004;29;20035;-73
2022/07/01 03:07:28;;;;;;;7.88;6.10;;;25.10;62.90;;;;;;4919657;29;20086;-73
2022/07/01 03:09:55;;;;;;;7.13;5.72;;;25.10;62.90;;;;;;4919793;29;20496;-73
2022/07/01 03:12:29;;;;;;;7.32;6.15;;;25.10;62.90;;;;;;4936564;29;20040;-73
2022/07/01 03:15:05;;;;;;;7.65;5.78;;;25.10;62.90;;;;;;4936712;29;20477;-73
2022/07/01 03:17:33;;;;;;;7.78;6.43;;;25.10;62.90;;;;;;4936441;29;20062;-73
2022/07/01 03:19:59;;;;;;;6.43;5.68;;;25.00;62.80;;;;;;4936961;29;20034;-74
2022/07/01 03:22:27;;;;;;;7.32;5.50;;;25.10;62.90;;;;;;4935441;29;20114;-73
2022/07/01 03:24:53;;;;;;;8.23;6.45;;;25.10;62.80;;;;;;4936594;29;20028;-74
2022/07/01 03:27:21;;;;;;;7.10;5.93;;;25.10;62.80;;;;;;4936170;29;20036;-73
2022/07/01 03:29:47;;;;;;;8.77;6.30;;;25.10;62.90;;;;;;4936466;29;20062;-74
2022/07/01 03:32:13;;;;;;;8.30;6.50;;;25.10;62.80;;;;;;4936343;29;20481;-74
2022/07/01 03:34:40;;;;;;;8.45;6.38;;;25.10;62.90;;;;;;4936248;29;20042;-74
2022/07/01 03:37:08;;;;;;;7.10;6.05;;;25.10;62.90;;;;;;4935951;29;20031;-74
2022/07/01 03:39:36;;;;;;;7.75;6.20;;;25.00;62.80;;;;;;4919404;29;20408;-74
2022/07/01 03:42:03;;;;;;;7.93;6.60;;;25.10;62.90;;;;;;4919120;29;20027;-74
2022/07/01 03:44:29;;;;;;;7.18;6.00;;;25.10;62.90;;;;;;4936250;29;20038;-74
2022/07/01 03:46:55;;;;;;;7.18;6.00;;;25.10;62.90;;;;;;4935805;29;20035;-74
2022/07/01 03:49:22;;;;;;;8.35;6.50;;;25.10;62.90;;;;;;4935926;29;20400;-74
2022/07/01 03:51:49;;;;;;;6.72;5.88;;;25.00;62.80;;;;;;4935698;29;20032;-74
2022/07/01 03:54:30;;;;;;;7.13;5.93;;;25.10;62.90;;;;;;4935840;29;20038;-73
2022/07/01 03:57:00;;;;;;;8.27;6.60;;;25.10;62.90;;;;;;4935742;29;20024;-74
2022/07/01 03:59:27;;;;;;;7.45;5.88;;;25.10;62.90;;;;;;4935870;29;20028;-73
2022/07/01 04:01:56;;;;;;;9.40;6.78;;;25.10;62.90;;;;;;4934561;29;20078;-73
2022/07/01 04:04:24;;;;;;;7.03;5.85;;;25.00;62.80;;;;;;4935815;29;20039;-73
2022/07/01 04:06:50;;;;;;;8.48;6.32;;;25.10;62.90;;;;;;4918725;29;20131;-73
2022/07/01 04:09:17;;;;;;;8.77;5.88;;;25.00;62.80;;;;;;4935711;29;20040;-73
2022/07/01 04:11:45;;;;;;;7.75;6.35;;;25.00;62.90;;;;;;4918526;29;20059;-74
2022/07/01 04:14:11;;;;;;;7.78;6.22;;;25.00;62.90;;;;;;4918563;29;20035;-73
2022/07/01 04:16:37;;;;;;;8.05;6.40;;;25.00;62.80;;;;;;4933912;29;20024;-74
2022/07/01 04:19:04;;;;;;;7.90;6.47;;;25.10;62.80;;;;;;4935498;29;20083;-74
2022/07/01 04:24:14;;;;;;;8.35;6.30;;;25.10;62.90;;;;;;4935497;29;20066;-75
2022/07/01 04:26:41;;;;;;;7.75;6.13;;;25.10;62.80;;;;;;4935210;29;20055;-74
2022/07/01 04:29:07;;;;;;;8.82;6.57;;;25.10;62.80;;;;;;4935575;29;20118;-74
2022/07/01 04:31:34;;;;;;;9.02;6.80;;;25.10;62.80;;;;;;4935157;29;20032;-75
2022/07/01 04:34:00;;;;;;;7.30;6.10;;;25.10;62.80;;;;;;4935194;29;20477;-74
2022/07/01 04:36:26;;;;;;;7.05;5.95;;;25.10;62.70;;;;;;4934950;29;20030;-74
2022/07/01 04:38:52;;;;;;;8.80;6.35;;;25.10;62.70;;;;;;4935220;29;20046;-75
2022/07/01 04:44:02;;;;;;;7.35;5.90;;;25.10;62.70;;;;;;4935123;29;20106;-74
2022/07/01 04:46:28;;;;;;;7.25;5.95;;;25.10;62.70;;;;;;4934715;29;20114;-74
2022/07/01 04:48:54;;;;;;;7.85;6.30;;;25.10;62.70;;;;;;4935117;29;20410;-74
2022/07/01 04:51:20;;;;;;;8.40;6.00;;;25.10;62.70;;;;;;4934975;29;20052;-74
2022/07/01 04:53:46;;;;;;;6.85;5.72;;;25.10;62.70;;;;;;4935083;29;20035;-74
2022/07/01 04:56:12;;;;;;;7.72;5.95;;;25.10;62.70;;;;;;4934512;29;20115;-73
2022/07/01 04:58:38;;;;;;;7.30;5.75;;;25.10;62.70;;;;;;4933759;29;20043;-73
2022/07/01 05:01:04;;;;;;;7.60;6.20;;;25.10;62.70;;;;;;4917864;29;20031;-73
2022/07/01 05:03:29;;;;;;;7.80;6.35;;;25.10;62.70;;;;;;4917233;29;20358;-73
2022/07/01 05:05:55;;;;;;;7.68;6.35;;;25.10;62.70;;;;;;4934589;29;20040;-73
2022/07/01 05:08:21;;;;;;;8.15;6.50;;;25.10;62.80;;;;;;4934863;29;20035;-73
2022/07/01 05:10:47;;;;;;;7.72;6.07;;;25.10;62.70;;;;;;4934799;29;20510;-73
2022/07/01 05:13:13;;;;;;;8.70;6.90;;;25.10;62.80;;;;;;4934811;29;20694;-73
2022/07/01 05:15:38;;;;;;;7.88;6.38;;;25.10;62.80;;;;;;4934273;29;20090;-73
2022/07/01 05:23:33;;;;;;;7.78;6.32;;;25.10;62.80;;;;;;4934691;29;20027;-73
2022/07/01 05:25:59;;;;;;;6.47;5.50;;;25.10;62.70;;;;;;4934326;29;20488;-72
2022/07/01 05:28:24;;;;;;;6.75;5.70;;;25.10;62.70;;;;;;4934702;29;20506;-73
2022/07/01 05:30:50;;;;;;;8.02;6.20;;;25.10;62.60;;;;;;4933251;29;20050;-73
2022/07/01 05:33:17;;;;;;;7.20;6.00;;;25.10;62.60;;;;;;4934687;29;20503;-73
2022/07/01 05:35:43;;;;;;;8.38;6.30;;;25.10;62.70;;;;;;4934057;29;20028;-73
2022/07/01 05:38:09;;;;;;;7.15;5.85;;;25.10;62.80;;;;;;4934520;29;20074;-73
2022/07/01 05:40:35;;;;;;;7.93;6.63;;;25.10;62.70;;;;;;4917386;29;20060;-74
2022/07/01 05:43:00;;;;;;;7.60;6.07;;;25.10;62.70;;;;;;4934544;29;20038;-73
2022/07/01 05:45:26;;;;;;;7.82;6.20;;;25.10;62.70;;;;;;4934154;29;20051;-73
2022/07/01 05:47:52;;;;;;;7.70;6.10;;;25.10;62.70;;;;;;4934111;29;20028;-73
2022/07/01 05:50:18;;;;;;;7.93;6.32;;;25.10;62.60;;;;;;4934325;29;20032;-73
2022/07/01 05:52:44;;;;;;;7.03;5.80;;;25.10;62.60;;;;;;4934318;29;20040;-74
2022/07/01 05:55:10;;;;;;;7.32;6.03;;;25.10;62.70;;;;;;4934382;29;20031;-73
2022/07/01 05:57:36;;;;;;;8.00;6.18;;;25.10;62.70;;;;;;4917057;29;20445;-73
2022/07/01 06:00:04;;;;;;;8.95;6.55;;;25.10;62.70;;;;;;4934532;29;20023;-73
2022/07/01 06:02:37;;;;;;;8.63;6.60;;;25.10;62.60;;;;;;4934157;29;20035;-73
2022/07/01 06:05:03;;;;;;;8.63;6.28;;;25.10;62.70;;;;;;4934270;29;20440;-74
2022/07/01 06:07:29;;;;;;;8.00;6.60;;;25.10;62.70;;;;;;4916757;29;20433;-74
2022/07/01 06:09:56;;;;;;;7.70;6.00;;;25.10;62.70;;;;;;4934212;29;20024;-74
2022/07/01 06:12:22;;;;;;;7.18;5.97;;;25.10;62.70;;;;;;4966097;23;20488;-78
2022/07/01 06:14:48;;;;;;;8.20;6.22;;;25.10;62.70;;;;;;4973368;28;20030;-79
2022/07/01 06:17:16;;;;;;;7.30;6.47;;;25.10;62.60;;;;;;4974400;28;20428;-78
2022/07/01 06:19:42;;;;;;;6.80;5.55;;;25.10;62.60;;;;;;4976527;28;20446;-77
2022/07/01 06:22:09;;;;;;;6.90;5.80;;;25.10;62.70;;;;;;4976109;28;20031;-77
2022/07/01 06:24:35;;;;;;;7.38;6.15;;;25.10;62.70;;;;;;4976175;28;20479;-77
2022/07/01 06:27:00;;;;;;;7.38;5.90;;;25.10;62.60;;;;;;4975781;28;20037;-78
2022/07/01 06:29:30;;;;;;;7.35;6.07;;;25.10;62.60;;;;;;4975973;28;20033;-77
2022/07/01 06:31:56;;;;;;;;;;;25.10;62.60;;;;;;4976444;28;20054;-78
2022/07/01 06:34:22;;;;;;;6.78;5.75;;;25.10;62.60;;;;;;4975924;28;19917;-78
2022/07/01 06:36:47;;;;;;;7.82;6.25;;;25.10;62.60;;;;;;4990811;28;20058;-77
2022/07/01 06:39:13;;;;;;;8.05;6.28;;;25.10;62.60;;;;;;4974840;28;20049;-77
2022/07/01 06:41:39;;;;;;;7.32;5.97;;;25.10;62.70;;;;;;4974700;28;20033;-77
2022/07/01 06:44:05;;;;;;;7.25;6.10;;;25.10;62.70;;;;;;4975923;28;20033;-77
2022/07/01 06:46:31;;;;;;;6.95;5.43;;;25.10;62.70;;;;;;4975487;28;20737;-78
2022/07/01 06:48:58;;;;;;;8.50;6.55;;;25.10;62.70;;;;;;4958588;28;20030;-78
2022/07/01 06:51:25;;;;;;;7.07;5.63;;;25.10;62.60;;;;;;4975649;28;20030;-77
2022/07/01 06:53:51;;;;;;;7.85;6.57;;;25.10;62.60;;;;;;4975776;28;20027;-78
2022/07/01 06:56:17;;;;;;;7.60;5.95;;;25.10;62.50;;;;;;4975381;28;20027;-78
2022/07/01 06:58:44;;;;;;;8.55;6.15;;;25.10;62.60;;;;;;4974414;28;20473;-78
2022/07/01 07:01:10;;;;;;;7.32;6.13;;;25.10;62.60;;;;;;4975365;28;20035;-77
2022/07/01 07:03:36;;;;;;;7.03;5.78;;;25.10;62.60;;;;;;4975445;28;20054;-77
2022/07/01 07:06:03;;;;;;;8.18;6.03;;;25.10;62.60;;;;;;4975191;28;20113;-78
2022/07/01 07:08:32;;;;;;;7.88;6.00;;;25.10;62.60;;;;;;4958294;28;20027;-78
2022/07/01 07:10:59;;;;;;;6.38;5.28;;;25.10;62.60;;;;;;4975491;28;20274;-78
2022/07/01 07:13:25;;;;;;;7.57;5.82;;;25.10;62.60;;;;;;4975190;28;20153;-79
2022/07/01 07:15:51;;;;;;;8.10;6.25;;;25.10;62.60;;;;;;4974921;28;20459;-79
2022/07/01 07:18:17;;;;;;;7.45;6.20;;;25.10;62.60;;;;;;4974164;28;20027;-79
2022/07/01 07:20:43;;;;;;;7.53;5.68;;;25.10;62.60;;;;;;4975236;28;20023;-78
2022/07/01 07:23:09;;;;;;;6.57;5.32;;;25.20;62.60;;;;;;4975085;28;20050;-78
2022/07/01 07:25:35;;;;;;;6.97;6.03;;;25.10;62.50;;;;;;4974278;28;20031;-79
2022/07/01 07:28:01;;;;;;;7.05;5.70;;;25.10;62.50;;;;;;4975002;28;20034;-78
2022/07/01 07:30:27;;;;;;;7.25;5.85;;;25.10;62.50;;;;;;4973763;28;20062;-78
2022/07/01 07:32:53;;;;;;;6.75;5.60;;;25.20;62.60;;;;;;4973891;28;20126;-78
2022/07/01 07:35:19;;;;;;;7.28;5.88;;;25.20;62.50;;;;;;4973747;28;20038;-78
2022/07/01 07:37:45;;;;;;;7.40;5.90;;;25.20;62.40;;;;;;4973553;28;20034;-79
2022/07/01 07:40:12;;;;;;;7.10;6.00;;;25.20;62.50;;;;;;4973814;28;20070;-79
2022/07/01 07:42:41;;;;;;;8.63;6.10;;;25.20;62.50;;;;;;4973462;28;20035;-78
2022/07/01 07:45:08;;;;;;;6.88;5.88;;;25.20;62.40;;;;;;4974839;28;20034;-79
2022/07/01 07:47:34;;;;;;;6.97;5.93;;;25.20;62.40;;;;;;4974329;28;20030;-79
2022/07/01 07:50:01;;;;;;;8.10;5.82;;;25.20;62.50;;;;;;4974691;28;20086;-78
2022/07/01 07:52:26;;;;;;;8.25;5.90;;;25.20;62.50;;;;;;4974582;28;20031;-79
2022/07/01 07:54:52;;;;;;;8.00;6.25;;;25.20;62.50;;;;;;4974499;28;20395;-79
2022/07/01 07:57:18;;;;;;;7.22;5.90;;;25.20;62.60;;;;;;4989191;28;20026;-79
2022/07/01 07:59:44;;;;;;;6.85;6.10;;;25.20;62.50;;;;;;4974522;28;20030;-79
2022/07/01 08:02:10;;;;;;;7.15;5.88;;;25.20;62.50;;;;;;4974392;28;20522;-79
2022/07/01 08:04:36;;;;;;;7.20;6.10;;;25.20;62.50;;;;;;4973402;28;20455;-79
2022/07/01 08:07:02;;;;;;;8.00;6.35;;;25.20;62.60;;;;;;4973069;28;20039;-79
2022/07/01 08:09:28;;;;;;;7.55;6.07;;;25.20;62.60;;;;;;4974291;28;20086;-79
2022/07/01 08:11:54;;;;;;;8.40;6.47;;;25.20;62.60;;;;;;4956753;28;20046;-79
2022/07/01 08:14:20;;;;;;;9.15;6.50;;;25.20;62.70;;;;;;4974041;28;20031;-78
2022/07/01 08:16:45;;;;;;;7.00;5.53;;;25.20;62.70;;;;;;4973828;28;20030;-79
2022/07/01 08:19:11;;;;;;;6.75;5.93;;;25.20;62.70;;;;;;4974307;28;20041;-79
2022/07/01 08:21:37;;;;;;;7.25;5.80;;;25.20;63.20;;;;;;4973972;28;20031;-79
2022/07/01 08:24:03;;;;;;;6.97;5.72;;;25.10;62.70;;;;;;4972834;28;20045;-79
2022/07/01 08:26:30;;;;;;;6.88;5.70;;;25.20;62.70;;;;;;4988610;28;20435;-79
2022/07/01 08:28:56;;;;;;;7.90;6.25;;;25.20;62.70;;;;;;4973963;28;20035;-79
2022/07/01 08:31:22;;;;;;;7.25;5.80;;;25.20;62.70;;;;;;4972755;28;20506;-78
2022/07/01 08:33:47;;;;;;;6.88;5.68;;;25.10;62.70;;;;;;4989187;28;20026;-79
2022/07/01 08:36:13;;;;;;;7.95;6.15;;;25.10;62.70;;;;;;4973694;28;20225;-79
2022/07/01 08:38:41;;;;;;;7.63;5.70;;;25.20;62.70;;;;;;4971780;28;20395;-79
2022/07/01 08:41:07;;;;;;;6.97;5.65;;;25.20;62.70;;;;;;4973673;28;20432;-78
2022/07/01 08:43:34;;;;;;;6.57;5.70;;;25.20;62.70;;;;;;4973693;28;20110;-79
2022/07/01 08:46:03;;;;;;;7.57;5.82;;;25.20;62.70;;;;;;4973443;28;20423;-79
2022/07/01 08:48:30;;;;;;;7.25;5.88;;;25.20;62.70;;;;;;4973516;28;20387;-79
2022/07/01 08:50:56;;;;;;;7.57;6.05;;;25.20;62.60;;;;;;4972483;28;20104;-78
2022/07/01 08:53:22;;;;;;;7.78;6.00;;;25.20;62.60;;;;;;4973535;28;20027;-79
2022/07/01 08:58:32;;;;;;;7.20;5.68;;;25.20;62.50;;;;;;4973571;28;20415;-79
2022/07/01 09:01:18;;;;;;;7.85;5.97;;;25.20;62.40;;;;;;4973512;28;20035;-78
2022/07/01 09:03:45;;;;;;;6.97;5.65;;;25.30;62.40;;;;;;4972350;28;20494;-78
2022/07/01 09:06:18;;;;;;;7.38;6.03;;;25.30;62.40;;;;;;4973187;28;20026;-79
2022/07/01 09:08:45;;;;;;;6.85;5.53;;;25.30;62.50;;;;;;4972465;28;20034;-79
2022/07/01 09:11:12;;;;;;;7.70;6.03;;;25.30;62.50;;;;;;4973156;28;20118;-77
2022/07/01 09:13:39;;;;;;;7.50;6.10;;;25.30;62.50;;;;;;4973316;28;20035;-78
2022/07/01 09:16:13;;;;;;;7.15;5.93;;;25.30;62.50;;;;;;4972863;28;20026;-79
2022/07/01 09:18:39;;;;;;;6.43;5.43;;;25.20;62.50;;;;;;4973211;28;20030;-79
2022/07/01 09:21:08;;;;;;;6.97;5.45;;;25.20;63.20;;;;;;4988125;28;20031;-78
2022/07/01 09:23:34;;;;;;;6.30;5.20;;;25.20;62.60;;;;;;4972567;28;20452;-79
2022/07/01 09:26:00;;;;;;;7.82;5.90;;;25.20;62.70;;;;;;4971614;28;20034;-79
2022/07/01 09:28:27;;;;;;;6.63;5.53;;;25.20;62.60;;;;;;4972886;28;20066;-79
2022/07/01 09:30:57;;;;;;;6.57;5.50;;;25.20;62.70;;;;;;4972894;28;20065;-78
2022/07/01 09:33:27;;;;;;;6.60;5.55;;;25.20;62.70;;;;;;4972873;28;20038;-79
2022/07/01 09:35:53;;;;;;;6.70;5.35;;;25.20;62.70;;;;;;4972696;28;20391;-80
2022/07/01 09:38:21;;;;;;;7.38;5.93;;;25.20;62.70;;;;;;4987952;28;20033;-80
2022/07/01 09:40:48;;;;;;;6.57;5.63;;;25.20;62.70;;;;;;4971726;28;20035;-80
2022/07/01 09:43:20;;;;;;;7.10;5.45;;;25.20;62.70;;;;;;4972973;28;20058;-80
2022/07/01 09:45:57;;;;;;;7.22;5.35;;;25.20;62.80;;;;;;4972736;28;20116;-79
2022/07/01 09:48:43;;;;;;;6.65;5.30;;;25.20;62.70;;;;;;4972976;28;20073;-79
2022/07/01 09:51:12;;;;;;;6.75;5.30;;;25.20;62.80;;;;;;4976964;28;20065;-85
2022/07/01 09:53:38;;;;;;;6.78;5.57;;;25.20;62.80;;;;;;4975945;28;20439;-82
2022/07/01 09:56:05;;;;;;;7.68;5.80;;;25.10;62.80;;;;;;4976382;28;20390;-81
2022/07/01 09:58:35;;;;;;;8.25;5.22;;;25.10;62.70;;;;;;4975783;28;20041;-83
2022/07/01 10:01:02;;;;;;;7.10;5.38;;;25.20;62.80;;;;;;4976814;28;20026;-83
2022/07/01 10:03:31;;;;;;;6.45;5.40;;;25.10;62.70;;;;;;4975545;28;20041;-82
2022/07/01 10:06:06;;;;;;;6.60;5.47;;;25.20;62.80;;;;;;4976418;28;20023;-82
2022/07/01 10:09:02;;;;;;;5.85;4.93;;;25.20;62.80;;;;;;4975952;28;20475;-82
2022/07/01 10:11:55;;;;;;;6.90;5.13;;;25.10;62.80;;;;;;4975280;28;20082;-81
2022/07/01 10:14:21;;;;;;;6.18;4.80;;;25.10;62.70;;;;;;4975625;28;20075;-81
2022/07/01 10:16:50;;;;;;;5.72;4.65;;;25.10;62.80;;;;;;4975086;28;20037;-83
2022/07/01 10:19:29;;;;;;;6.53;5.03;;;25.10;62.70;;;;;;4976820;28;20435;-84
2022/07/01 10:22:13;;;;;;;5.72;4.65;;;25.10;62.70;;;;;;4976396;28;20399;-84
2022/07/01 10:24:39;;;;;;;6.75;5.25;;;25.10;62.60;;;;;;4975162;28;20046;-83
2022/07/01 10:27:20;;;;;;;6.35;5.10;;;25.20;62.70;;;;;;4976074;28;20038;-83
2022/07/01 10:29:46;;;;;;;5.18;4.57;;;25.20;62.70;;;;;;4976363;28;20093;-83
2022/07/01 10:32:21;;;;;;;5.38;4.70;;;25.20;62.60;;;;;;4975114;28;20082;-83
2022/07/01 10:34:47;;;;;;;5.82;4.90;;;25.20;62.60;;;;;;4976385;28;20086;-84
2022/07/01 10:37:13;;;;;;;6.13;5.13;;;25.20;62.60;;;;;;4976117;28;20487;-84
2022/07/01 10:40:01;;;;;;;5.82;5.03;;;25.20;62.60;;;;;;4975067;28;20448;-83
2022/07/01 10:42:30;;;;;;;6.55;5.10;;;25.10;62.50;;;;;;4975165;28;20534;-83
2022/07/01 10:45:01;;;;;;;6.40;5.07;;;25.10;62.60;;;;;;4959010;28;20027;-83
2022/07/01 10:47:27;;;;;;;6.00;4.90;;;25.10;62.50;;;;;;4975778;28;20487;-84
2022/07/01 10:50:03;;;;;;;6.35;5.05;;;25.10;62.50;;;;;;4975947;28;20023;-84
2022/07/01 10:52:29;;;;;;;6.22;5.05;;;25.10;62.60;;;;;;4975719;28;20070;-84
2022/07/01 10:54:57;;;;;;;6.72;5.28;;;25.10;62.60;;;;;;4974526;28;20030;-84
2022/07/01 10:57:33;;;;;;;6.25;4.72;;;25.10;62.50;;;;;;4974382;28;20085;-84
2022/07/01 10:59:59;;;;;;;6.00;4.50;;;25.10;62.60;;;;;;4990470;28;20053;-85
2022/07/01 11:02:29;;;;;;;6.22;4.60;;;25.10;62.50;;;;;;4973785;28;20043;-84
2022/07/01 11:05:03;;;;;;;6.18;4.78;;;25.10;62.60;;;;;;4974536;28;20118;-83
2022/07/01 11:07:34;;;;;;;5.90;4.68;;;25.10;62.50;;;;;;4974462;28;20062;-85
2022/07/01 11:10:02;;;;;;;6.78;4.65;;;25.10;62.50;;;;;;4974324;28;20077;-84
2022/07/01 11:12:29;;;;;;;6.78;4.82;;;25.10;62.50;;;;;;4975362;28;20058;-84
2022/07/01 11:14:58;;;;;;;4.85;4.10;;;25.10;62.50;;;;;;4975375;28;20105;-84
2022/07/01 11:17:25;;;;;;;5.90;4.65;;;25.10;62.60;;;;;;4975199;28;20109;-84
2022/07/01 11:19:57;;;;;;;6.18;4.75;;;25.10;62.60;;;;;;4958344;28;20027;-84
2022/07/01 11:22:29;;;;;;;4.55;4.05;;;25.10;62.50;;;;;;4958114;28;20034;-84
2022/07/01 11:24:56;;;;;;;5.85;4.85;;;25.10;62.60;;;;;;4975363;28;20085;-84
2022/07/01 11:27:24;;;;;;;5.93;4.50;;;25.10;62.50;;;;;;4975114;28;20472;-84
2022/07/01 11:30:04;;;;;;;5.15;4.25;;;25.10;62.50;;;;;;4957641;28;20031;-84
2022/07/01 11:32:33;;;;;;;6.68;4.63;;;25.10;62.50;;;;;;4975377;28;20030;-84
2022/07/01 11:35:01;;;;;;;5.72;4.60;;;25.10;63.00;;;;;;4975041;28;20054;-83
2022/07/01 11:40:18;;;;;;;5.75;4.30;;;25.10;62.60;;;;;;4990060;28;20427;-84
2022/07/01 11:42:45;;;;;;;4.30;3.67;;;25.10;62.50;;;;;;4975047;28;20018;-83
2022/07/01 11:45:24;;;;;;;;;;;25.10;62.50;;;;;;4975869;28;20035;-82
2022/07/01 11:47:56;;;;;;;5.30;4.50;;;25.10;62.40;;;;;;4958016;28;20047;-81
2022/07/01 11:50:24;;;;;;;5.22;4.13;;;25.10;62.40;;;;;;4973933;28;20038;-81
2022/07/01 11:52:54;;;;;;;5.47;4.13;;;25.10;62.40;;;;;;4974695;28;20085;-81
2022/07/01 11:55:20;;;;;;;5.05;4.20;;;25.10;62.40;;;;;;4973411;28;20033;-82
2022/07/01 11:57:52;;;;;;;4.70;3.90;;;25.10;62.40;;;;;;4973217;28;20121;-81
2022/07/01 12:00:40;;;;;;;5.10;3.95;;;25.10;62.50;;;;;;4974580;28;20102;-82
2022/07/01 12:03:31;;;;;;;4.90;3.90;;;25.20;62.40;;;;;;4972470;28;20035;-81
2022/07/01 12:05:57;;;;;;;5.07;4.20;;;25.10;62.40;;;;;;4973885;28;20113;-82
2022/07/01 12:08:24;;;;;;;8.07;4.43;;;25.10;62.40;;;;;;4973291;28;20042;-83
2022/07/01 12:10:50;;;;;;;4.65;4.05;;;25.10;62.30;;;;;;4974637;28;20031;-82
2022/07/01 12:13:26;;;;;;;4.15;3.50;;;25.20;62.40;;;;;;4972981;28;20514;-83
2022/07/01 12:15:52;;;;;;;5.40;4.00;;;25.10;62.30;;;;;;4972929;28;20503;-84
2022/07/01 12:18:18;;;;;;;5.82;3.75;;;25.10;62.30;;;;;;4975028;28;20055;-84
2022/07/01 12:20:55;;;;;;;6.30;4.18;;;25.20;62.40;;;;;;4974814;28;20129;-85
2022/07/01 12:23:21;;;;;;;5.68;4.28;;;25.10;62.40;;;;;;4973011;28;20447;-79
2022/07/01 12:25:51;;;;;;;4.75;4.00;;;25.10;62.40;;;;;;4973850;28;20058;-81
2022/07/01 12:28:37;;;;;;;5.40;4.15;;;25.10;62.40;;;;;;4974038;28;20066;-83
2022/07/01 12:31:09;;;;;;;4.78;3.88;;;25.10;62.40;;;;;;4988980;28;20035;-83
2022/07/01 12:33:47;;;;;;;5.28;3.97;;;25.10;62.40;;;;;;4976775;28;20027;-82
2022/07/01 12:36:15;;;;;;;5.47;4.07;;;25.10;62.40;;;;;;4975457;28;20118;-83
2022/07/01 12:38:42;;;;;;;4.90;4.10;;;25.10;62.40;;;;;;4975635;28;20114;-82
2022/07/01 12:41:33;;;;;;;4.53;3.63;;;25.10;62.50;;;;;;4990574;28;20027;-82
2022/07/01 12:44:24;;;;;;;4.43;3.90;;;25.10;62.50;;;;;;4989658;28;20031;-83
2022/07/01 12:46:51;;;;;;;4.63;3.80;;;25.10;62.40;;;;;;4973496;28;20039;-82
2022/07/01 12:49:24;;;;;;;4.82;3.97;;;25.10;62.40;;;;;;4973457;28;20045;-82
2022/07/01 12:51:51;;;;;;;5.28;4.10;;;25.10;62.40;;;;;;4974141;28;20030;-82
2022/07/01 12:54:34;;;;;;;3.88;3.47;;;25.10;62.40;;;;;;4973911;28;20031;-82
2022/07/01 12:57:00;;;;;;;5.20;3.90;;;25.10;62.40;;;;;;4973572;28;20046;-82
2022/07/01 12:59:27;;;;;;;5.22;3.88;;;25.10;62.40;;;;;;4972688;28;20030;-83
2022/07/01 13:01:54;;;;;;;4.20;3.60;;;25.10;62.40;;;;;;4974304;28;20027;-83
2022/07/01 13:04:29;;;;;;;4.85;4.05;;;25.10;62.50;;;;;;4989209;28;20042;-83
2022/07/01 13:06:55;;;;;;;4.50;3.78;;;25.10;62.40;;;;;;4956753;28;20038;-83
2022/07/01 13:09:21;;;;;;;4.70;3.72;;;25.10;62.40;;;;;;4956967;28;20038;-83